sensor_id;sensor_type;location;lat;lon;timestamp;pressure;altitude;pressure_sealevel;temperature;humidity
59545;BME280;45368;55.002;-1.592;2022-11-20T00:02:07;100129.77;;;3.84;69.09
59545;BME280;45368;55.002;-1.592;2022-11-20T00:04:35;100121.42;;;3.92;68.58
59545;BME280;45368;55.002;-1.592;2022-11-20T00:07:02;100118.63;;;4.04;68.96
59545;BME280;45368;55.002;-1.592;2022-11-20T00:09:29;100116.76;;;3.58;70.49
59545;BME280;45368;55.002;-1.592;2022-11-20T00:11:56;100112.39;;;3.57;71.02
59545;BME280;45368;55.002;-1.592;2022-11-20T00:14:25;100109.23;;;3.47;70.96
59545;BME280;45368;55.002;-1.592;2022-11-20T00:16:52;100107.86;;;3.82;70.47
59545;BME280;45368;55.002;-1.592;2022-11-20T00:19:19;100106.16;;;4.26;68.05
59545;BME280;45368;55.002;-1.592;2022-11-20T00:21:46;100113.28;;;3.74;69.62
59545;BME280;45368;55.002;-1.592;2022-11-20T00:24:13;100108.49;;;4.02;68.95
59545;BME280;45368;55.002;-1.592;2022-11-20T00:26:41;100103.05;;;4.18;67.69
59545;BME280;45368;55.002;-1.592;2022-11-20T00:29:09;100103.35;;;3.90;68.16
59545;BME280;45368;55.002;-1.592;2022-11-20T00:31:37;100101.16;;;4.38;67.56
59545;BME280;45368;55.002;-1.592;2022-11-20T00:34:04;100100.80;;;4.42;67.22
59545;BME280;45368;55.002;-1.592;2022-11-20T00:36:33;100101.34;;;3.57;69.06
59545;BME280;45368;55.002;-1.592;2022-11-20T00:39:01;100098.93;;;3.41;70.90
59545;BME280;45368;55.002;-1.592;2022-11-20T00:41:29;100094.84;;;3.47;69.66
59545;BME280;45368;55.002;-1.592;2022-11-20T00:43:57;100094.46;;;3.94;68.72
59545;BME280;45368;55.002;-1.592;2022-11-20T00:46:26;100092.81;;;3.67;69.61
59545;BME280;45368;55.002;-1.592;2022-11-20T00:48:54;100083.07;;;3.46;69.59
59545;BME280;45368;55.002;-1.592;2022-11-20T00:51:25;100072.71;;;3.93;69.40
59545;BME280;45368;55.002;-1.592;2022-11-20T00:53:55;100064.95;;;3.70;69.48
59545;BME280;45368;55.002;-1.592;2022-11-20T00:56:23;100061.60;;;3.28;69.90
59545;BME280;45368;55.002;-1.592;2022-11-20T00:58:50;100060.45;;;3.96;69.44
59545;BME280;45368;55.002;-1.592;2022-11-20T01:01:19;100050.45;;;3.91;69.05
59545;BME280;45368;55.002;-1.592;2022-11-20T01:03:48;100038.11;;;4.40;69.41
59545;BME280;45368;55.002;-1.592;2022-11-20T01:06:18;100039.39;;;3.71;69.52
59545;BME280;45368;55.002;-1.592;2022-11-20T01:08:47;100040.53;;;3.58;70.61
59545;BME280;45368;55.002;-1.592;2022-11-20T01:11:17;100028.33;;;3.59;71.57
59545;BME280;45368;55.002;-1.592;2022-11-20T01:13:45;100029.74;;;3.43;70.73
59545;BME280;45368;55.002;-1.592;2022-11-20T01:16:14;100030.97;;;3.90;70.54
59545;BME280;45368;55.002;-1.592;2022-11-20T01:18:44;100027.97;;;3.74;71.51
59545;BME280;45368;55.002;-1.592;2022-11-20T01:21:13;100029.71;;;3.25;73.01
59545;BME280;45368;55.002;-1.592;2022-11-20T01:23:42;100025.52;;;3.59;71.38
59545;BME280;45368;55.002;-1.592;2022-11-20T01:26:12;100025.53;;;2.97;73.27
59545;BME280;45368;55.002;-1.592;2022-11-20T01:28:40;100022.53;;;3.59;71.40
59545;BME280;45368;55.002;-1.592;2022-11-20T01:31:13;100015.30;;;3.95;70.59
59545;BME280;45368;55.002;-1.592;2022-11-20T01:33:42;100014.71;;;3.81;72.15
59545;BME280;45368;55.002;-1.592;2022-11-20T01:36:10;100006.70;;;3.76;71.99
59545;BME280;45368;55.002;-1.592;2022-11-20T01:38:38;100003.93;;;4.07;71.76
59545;BME280;45368;55.002;-1.592;2022-11-20T01:41:06;99996.12;;;4.07;70.71
59545;BME280;45368;55.002;-1.592;2022-11-20T01:43:34;99986.76;;;3.48;72.07
59545;BME280;45368;55.002;-1.592;2022-11-20T01:46:13;99978.09;;;3.35;72.41
59545;BME280;45368;55.002;-1.592;2022-11-20T01:48:45;99989.35;;;3.35;74.33
59545;BME280;45368;55.002;-1.592;2022-11-20T01:51:21;99984.18;;;3.94;72.93
59545;BME280;45368;55.002;-1.592;2022-11-20T01:53:52;99976.22;;;3.84;72.81
59545;BME280;45368;55.002;-1.592;2022-11-20T01:56:21;99971.47;;;3.92;73.48
59545;BME280;45368;55.002;-1.592;2022-11-20T01:58:53;99973.69;;;3.57;74.11
59545;BME280;45368;55.002;-1.592;2022-11-20T02:01:22;99959.42;;;3.15;75.10
59545;BME280;45368;55.002;-1.592;2022-11-20T02:03:50;99961.97;;;2.76;77.59
59545;BME280;45368;55.002;-1.592;2022-11-20T02:06:23;99958.41;;;2.70;78.15
59545;BME280;45368;55.002;-1.592;2022-11-20T02:08:51;99953.22;;;2.63;78.80
59545;BME280;45368;55.002;-1.592;2022-11-20T02:11:19;99954.22;;;2.41;79.98
59545;BME280;45368;55.002;-1.592;2022-11-20T02:13:46;99939.78;;;2.51;79.63
59545;BME280;45368;55.002;-1.592;2022-11-20T02:16:20;99940.19;;;2.58;79.92
59545;BME280;45368;55.002;-1.592;2022-11-20T02:18:48;99930.30;;;3.05;78.25
59545;BME280;45368;55.002;-1.592;2022-11-20T02:21:24;99927.30;;;2.85;79.00
59545;BME280;45368;55.002;-1.592;2022-11-20T02:24:00;99928.33;;;3.18;77.34
59545;BME280;45368;55.002;-1.592;2022-11-20T02:26:28;99925.25;;;2.89;78.47
59545;BME280;45368;55.002;-1.592;2022-11-20T02:28:57;99920.32;;;2.90;77.92
59545;BME280;45368;55.002;-1.592;2022-11-20T02:31:25;99916.47;;;2.85;77.52
59545;BME280;45368;55.002;-1.592;2022-11-20T02:33:55;99913.35;;;3.24;76.57
59545;BME280;45368;55.002;-1.592;2022-11-20T02:36:26;99912.40;;;3.15;76.92
59545;BME280;45368;55.002;-1.592;2022-11-20T02:38:54;99910.88;;;3.73;75.49
59545;BME280;45368;55.002;-1.592;2022-11-20T02:41:31;99906.67;;;3.10;77.38
59545;BME280;45368;55.002;-1.592;2022-11-20T02:43:59;99900.99;;;2.89;77.45
59545;BME280;45368;55.002;-1.592;2022-11-20T02:46:26;99891.30;;;3.63;76.13
59545;BME280;45368;55.002;-1.592;2022-11-20T02:48:53;99887.87;;;3.86;75.67
59545;BME280;45368;55.002;-1.592;2022-11-20T02:51:21;99883.30;;;2.87;78.04
59545;BME280;45368;55.002;-1.592;2022-11-20T02:53:49;99878.89;;;2.79;77.39
59545;BME280;45368;55.002;-1.592;2022-11-20T02:56:17;99871.97;;;3.04;77.97
59545;BME280;45368;55.002;-1.592;2022-11-20T02:58:44;99861.55;;;3.17;77.99
59545;BME280;45368;55.002;-1.592;2022-11-20T03:01:12;99856.80;;;3.04;78.02
59545;BME280;45368;55.002;-1.592;2022-11-20T03:03:39;99848.61;;;3.31;76.85
59545;BME280;45368;55.002;-1.592;2022-11-20T03:06:07;99842.20;;;3.30;78.38
59545;BME280;45368;55.002;-1.592;2022-11-20T03:08:47;99835.98;;;2.86;78.09
59545;BME280;45368;55.002;-1.592;2022-11-20T03:11:15;99834.88;;;2.66;79.17
59545;BME280;45368;55.002;-1.592;2022-11-20T03:13:42;99829.17;;;2.62;79.25
59545;BME280;45368;55.002;-1.592;2022-11-20T03:16:12;99823.04;;;2.77;78.44
59545;BME280;45368;55.002;-1.592;2022-11-20T03:18:41;99816.67;;;3.29;76.91
59545;BME280;45368;55.002;-1.592;2022-11-20T03:21:10;99819.86;;;2.97;78.04
59545;BME280;45368;55.002;-1.592;2022-11-20T03:23:38;99813.12;;;3.06;76.76
59545;BME280;45368;55.002;-1.592;2022-11-20T03:26:09;99814.87;;;3.52;76.46
59545;BME280;45368;55.002;-1.592;2022-11-20T03:28:37;99805.29;;;3.72;75.74
59545;BME280;45368;55.002;-1.592;2022-11-20T03:31:07;99805.63;;;2.46;78.93
59545;BME280;45368;55.002;-1.592;2022-11-20T03:33:34;99798.82;;;2.76;78.63
59545;BME280;45368;55.002;-1.592;2022-11-20T03:36:02;99795.10;;;3.51;76.08
59545;BME280;45368;55.002;-1.592;2022-11-20T03:38:30;99792.43;;;3.86;75.08
59545;BME280;45368;55.002;-1.592;2022-11-20T03:40:59;99786.76;;;3.56;75.95
59545;BME280;45368;55.002;-1.592;2022-11-20T03:43:27;99787.00;;;3.22;76.08
59545;BME280;45368;55.002;-1.592;2022-11-20T03:45:54;99783.71;;;3.28;75.95
59545;BME280;45368;55.002;-1.592;2022-11-20T03:48:22;99785.78;;;3.27;75.66
59545;BME280;45368;55.002;-1.592;2022-11-20T03:50:48;99782.37;;;3.45;75.08
59545;BME280;45368;55.002;-1.592;2022-11-20T03:53:16;99780.37;;;2.71;78.01
59545;BME280;45368;55.002;-1.592;2022-11-20T03:55:43;99774.47;;;3.31;76.10
59545;BME280;45368;55.002;-1.592;2022-11-20T03:58:10;99769.70;;;3.04;76.97
59545;BME280;45368;55.002;-1.592;2022-11-20T04:00:38;99763.50;;;3.21;76.63
59545;BME280;45368;55.002;-1.592;2022-11-20T04:03:05;99758.70;;;3.73;76.46
59545;BME280;45368;55.002;-1.592;2022-11-20T04:05:33;99757.01;;;3.54;76.52
59545;BME280;45368;55.002;-1.592;2022-11-20T04:08:00;99752.08;;;4.03;74.55
59545;BME280;45368;55.002;-1.592;2022-11-20T04:10:28;99754.35;;;3.48;76.63
59545;BME280;45368;55.002;-1.592;2022-11-20T04:12:55;99747.41;;;4.11;74.31
59545;BME280;45368;55.002;-1.592;2022-11-20T04:15:23;99749.37;;;3.63;75.19
59545;BME280;45368;55.002;-1.592;2022-11-20T04:17:50;99755.05;;;4.02;74.50
59545;BME280;45368;55.002;-1.592;2022-11-20T04:20:18;99753.11;;;3.76;75.21
59545;BME280;45368;55.002;-1.592;2022-11-20T04:22:45;99755.80;;;3.56;75.28
59545;BME280;45368;55.002;-1.592;2022-11-20T04:25:12;99756.40;;;3.64;75.54
59545;BME280;45368;55.002;-1.592;2022-11-20T04:27:39;99758.15;;;2.89;77.23
59545;BME280;45368;55.002;-1.592;2022-11-20T04:30:07;99758.78;;;3.46;76.82
59545;BME280;45368;55.002;-1.592;2022-11-20T04:32:34;99757.36;;;3.65;76.92
59545;BME280;45368;55.002;-1.592;2022-11-20T04:35:01;99759.13;;;3.24;77.72
59545;BME280;45368;55.002;-1.592;2022-11-20T04:37:28;99755.05;;;3.23;76.09
59545;BME280;45368;55.002;-1.592;2022-11-20T04:39:56;99756.75;;;3.54;76.50
59545;BME280;45368;55.002;-1.592;2022-11-20T04:42:23;99754.66;;;3.09;77.28
59545;BME280;45368;55.002;-1.592;2022-11-20T04:44:50;99754.82;;;3.38;76.66
59545;BME280;45368;55.002;-1.592;2022-11-20T04:47:17;99755.82;;;3.33;78.21
59545;BME280;45368;55.002;-1.592;2022-11-20T04:49:44;99756.07;;;2.62;79.52
59545;BME280;45368;55.002;-1.592;2022-11-20T04:52:12;99756.85;;;2.88;79.55
59545;BME280;45368;55.002;-1.592;2022-11-20T04:54:39;99758.81;;;3.01;79.23
59545;BME280;45368;55.002;-1.592;2022-11-20T04:57:06;99752.05;;;3.14;78.21
59545;BME280;45368;55.002;-1.592;2022-11-20T04:59:33;99754.01;;;3.29;78.64
59545;BME280;45368;55.002;-1.592;2022-11-20T05:02:01;99753.02;;;3.05;78.79
59545;BME280;45368;55.002;-1.592;2022-11-20T05:04:28;99752.90;;;2.91;79.03
59545;BME280;45368;55.002;-1.592;2022-11-20T05:06:57;99754.19;;;3.45;77.75
59545;BME280;45368;55.002;-1.592;2022-11-20T05:09:24;99753.58;;;3.64;77.20
59545;BME280;45368;55.002;-1.592;2022-11-20T05:11:52;99755.56;;;3.36;79.06
59545;BME280;45368;55.002;-1.592;2022-11-20T05:14:19;99751.38;;;2.95;79.36
59545;BME280;45368;55.002;-1.592;2022-11-20T05:16:46;99744.97;;;3.32;78.46
59545;BME280;45368;55.002;-1.592;2022-11-20T05:19:13;99740.81;;;3.19;77.97
59545;BME280;45368;55.002;-1.592;2022-11-20T05:21:41;99739.98;;;3.47;78.53
59545;BME280;45368;55.002;-1.592;2022-11-20T05:24:09;99729.92;;;3.94;76.00
59545;BME280;45368;55.002;-1.592;2022-11-20T05:26:36;99729.08;;;3.62;77.07
59545;BME280;45368;55.002;-1.592;2022-11-20T05:29:04;99722.06;;;3.96;75.62
59545;BME280;45368;55.002;-1.592;2022-11-20T05:31:31;99717.93;;;4.13;75.29
59545;BME280;45368;55.002;-1.592;2022-11-20T05:33:58;99715.33;;;3.85;76.27
59545;BME280;45368;55.002;-1.592;2022-11-20T05:36:26;99717.89;;;3.29;77.30
59545;BME280;45368;55.002;-1.592;2022-11-20T05:38:53;99723.65;;;3.82;76.30
59545;BME280;45368;55.002;-1.592;2022-11-20T05:41:20;99725.65;;;4.20;76.74
59545;BME280;45368;55.002;-1.592;2022-11-20T05:43:48;99725.31;;;2.92;78.92
59545;BME280;45368;55.002;-1.592;2022-11-20T05:46:18;99721.72;;;3.23;79.53
59545;BME280;45368;55.002;-1.592;2022-11-20T05:48:46;99712.99;;;2.56;81.15
59545;BME280;45368;55.002;-1.592;2022-11-20T05:51:16;99711.44;;;2.36;82.56
59545;BME280;45368;55.002;-1.592;2022-11-20T05:53:43;99706.68;;;2.42;81.57
59545;BME280;45368;55.002;-1.592;2022-11-20T05:56:12;99699.46;;;2.43;81.05
59545;BME280;45368;55.002;-1.592;2022-11-20T05:58:40;99703.72;;;2.46;81.67
59545;BME280;45368;55.002;-1.592;2022-11-20T06:01:10;99693.06;;;2.45;81.65
59545;BME280;45368;55.002;-1.592;2022-11-20T06:03:38;99690.00;;;3.37;80.26
59545;BME280;45368;55.002;-1.592;2022-11-20T06:06:06;99684.35;;;3.66;78.86
59545;BME280;45368;55.002;-1.592;2022-11-20T06:08:34;99684.19;;;3.11;79.08
59545;BME280;45368;55.002;-1.592;2022-11-20T06:11:04;99683.44;;;3.20;79.01
59545;BME280;45368;55.002;-1.592;2022-11-20T06:13:32;99684.65;;;3.10;80.09
59545;BME280;45368;55.002;-1.592;2022-11-20T06:16:00;99682.02;;;3.11;79.48
59545;BME280;45368;55.002;-1.592;2022-11-20T06:18:28;99675.52;;;3.03;78.55
59545;BME280;45368;55.002;-1.592;2022-11-20T06:21:04;99679.57;;;3.10;79.06
59545;BME280;45368;55.002;-1.592;2022-11-20T06:23:34;99670.64;;;2.93;79.97
59545;BME280;45368;55.002;-1.592;2022-11-20T06:26:02;99669.24;;;2.70;79.42
59545;BME280;45368;55.002;-1.592;2022-11-20T06:28:30;99661.59;;;3.57;78.23
59545;BME280;45368;55.002;-1.592;2022-11-20T06:30:58;99654.75;;;3.27;77.63
59545;BME280;45368;55.002;-1.592;2022-11-20T06:33:25;99646.08;;;3.45;77.59
59545;BME280;45368;55.002;-1.592;2022-11-20T06:35:55;99645.45;;;3.44;79.23
59545;BME280;45368;55.002;-1.592;2022-11-20T06:38:23;99642.30;;;3.55;77.54
59545;BME280;45368;55.002;-1.592;2022-11-20T06:40:49;99643.55;;;3.61;78.66
59545;BME280;45368;55.002;-1.592;2022-11-20T06:43:17;99643.00;;;3.36;78.36
59545;BME280;45368;55.002;-1.592;2022-11-20T06:45:44;99643.68;;;3.30;78.94
59545;BME280;45368;55.002;-1.592;2022-11-20T06:48:11;99643.00;;;3.07;79.20
59545;BME280;45368;55.002;-1.592;2022-11-20T06:50:38;99641.85;;;2.86;80.71
59545;BME280;45368;55.002;-1.592;2022-11-20T06:53:06;99639.22;;;2.84;80.75
59545;BME280;45368;55.002;-1.592;2022-11-20T06:55:33;99637.65;;;2.61;81.98
59545;BME280;45368;55.002;-1.592;2022-11-20T06:58:00;99631.31;;;3.09;79.84
59545;BME280;45368;55.002;-1.592;2022-11-20T07:00:28;99636.88;;;2.70;81.80
59545;BME280;45368;55.002;-1.592;2022-11-20T07:02:55;99636.93;;;2.71;81.73
59545;BME280;45368;55.002;-1.592;2022-11-20T07:05:22;99639.05;;;2.19;83.46
59545;BME280;45368;55.002;-1.592;2022-11-20T07:07:49;99634.98;;;2.89;81.05
59545;BME280;45368;55.002;-1.592;2022-11-20T07:10:16;99637.13;;;2.96;80.38
59545;BME280;45368;55.002;-1.592;2022-11-20T07:12:49;99635.88;;;2.96;80.46
59545;BME280;45368;55.002;-1.592;2022-11-20T07:15:17;99625.84;;;3.46;79.55
59545;BME280;45368;55.002;-1.592;2022-11-20T07:17:44;99632.26;;;2.94;81.49
59545;BME280;45368;55.002;-1.592;2022-11-20T07:20:13;99639.77;;;2.65;81.57
59545;BME280;45368;55.002;-1.592;2022-11-20T07:22:40;99646.69;;;3.39;79.65
59545;BME280;45368;55.002;-1.592;2022-11-20T07:25:08;99654.83;;;3.52;79.13
59545;BME280;45368;55.002;-1.592;2022-11-20T07:27:36;99651.96;;;3.19;79.76
59545;BME280;45368;55.002;-1.592;2022-11-20T07:30:04;99653.63;;;3.34;79.90
59545;BME280;45368;55.002;-1.592;2022-11-20T07:32:32;99652.89;;;2.82;81.50
59545;BME280;45368;55.002;-1.592;2022-11-20T07:34:59;99651.28;;;2.82;81.03
59545;BME280;45368;55.002;-1.592;2022-11-20T07:37:26;99648.81;;;2.88;81.24
59545;BME280;45368;55.002;-1.592;2022-11-20T07:39:54;99647.63;;;3.04;79.99
59545;BME280;45368;55.002;-1.592;2022-11-20T07:42:21;99634.82;;;3.04;80.10
59545;BME280;45368;55.002;-1.592;2022-11-20T07:44:49;99642.06;;;2.74;81.17
59545;BME280;45368;55.002;-1.592;2022-11-20T07:47:16;99644.26;;;2.74;81.82
59545;BME280;45368;55.002;-1.592;2022-11-20T07:49:44;99642.66;;;2.87;82.29
59545;BME280;45368;55.002;-1.592;2022-11-20T07:52:11;99642.80;;;2.26;82.92
59545;BME280;45368;55.002;-1.592;2022-11-20T07:54:39;99637.31;;;2.77;81.39
59545;BME280;45368;55.002;-1.592;2022-11-20T07:57:06;99635.29;;;2.60;81.99
59545;BME280;45368;55.002;-1.592;2022-11-20T07:59:33;99641.89;;;2.70;81.64
59545;BME280;45368;55.002;-1.592;2022-11-20T08:02:00;99643.04;;;2.87;80.97
59545;BME280;45368;55.002;-1.592;2022-11-20T08:04:27;99645.59;;;2.67;81.15
59545;BME280;45368;55.002;-1.592;2022-11-20T08:06:55;99639.67;;;3.32;79.01
59545;BME280;45368;55.002;-1.592;2022-11-20T08:09:22;99637.42;;;3.30;79.41
59545;BME280;45368;55.002;-1.592;2022-11-20T08:11:50;99636.13;;;3.00;79.65
59545;BME280;45368;55.002;-1.592;2022-11-20T08:14:17;99637.23;;;3.04;80.35
59545;BME280;45368;55.002;-1.592;2022-11-20T08:16:46;99638.88;;;3.14;79.00
59545;BME280;45368;55.002;-1.592;2022-11-20T08:19:15;99641.17;;;3.83;77.84
59545;BME280;45368;55.002;-1.592;2022-11-20T08:21:44;99646.39;;;2.92;80.15
59545;BME280;45368;55.002;-1.592;2022-11-20T08:24:31;99642.72;;;2.93;79.44
59545;BME280;45368;55.002;-1.592;2022-11-20T08:27:05;99639.65;;;3.43;78.25
59545;BME280;45368;55.002;-1.592;2022-11-20T08:29:32;99628.20;;;3.38;78.07
59545;BME280;45368;55.002;-1.592;2022-11-20T08:32:05;99618.47;;;4.03;77.52
59545;BME280;45368;55.002;-1.592;2022-11-20T08:34:33;99624.58;;;3.39;78.36
59545;BME280;45368;55.002;-1.592;2022-11-20T08:37:02;99633.38;;;2.95;79.13
59545;BME280;45368;55.002;-1.592;2022-11-20T08:39:29;99639.14;;;3.28;78.39
59545;BME280;45368;55.002;-1.592;2022-11-20T08:41:56;99635.73;;;3.74;77.15
59545;BME280;45368;55.002;-1.592;2022-11-20T08:44:23;99637.70;;;3.16;79.42
59545;BME280;45368;55.002;-1.592;2022-11-20T08:46:50;99635.33;;;3.41;78.59
59545;BME280;45368;55.002;-1.592;2022-11-20T08:49:18;99640.43;;;3.55;79.38
59545;BME280;45368;55.002;-1.592;2022-11-20T08:51:45;99635.58;;;3.50;78.19
59545;BME280;45368;55.002;-1.592;2022-11-20T08:54:12;99637.49;;;3.90;77.54
59545;BME280;45368;55.002;-1.592;2022-11-20T08:56:39;99640.58;;;3.40;78.55
59545;BME280;45368;55.002;-1.592;2022-11-20T08:59:07;99634.96;;;3.88;76.88
59545;BME280;45368;55.002;-1.592;2022-11-20T09:01:34;99641.06;;;4.08;76.87
59545;BME280;45368;55.002;-1.592;2022-11-20T09:04:09;99640.27;;;3.81;76.57
59545;BME280;45368;55.002;-1.592;2022-11-20T09:06:42;99635.92;;;4.52;74.45
59545;BME280;45368;55.002;-1.592;2022-11-20T09:09:10;99632.96;;;4.16;75.75
59545;BME280;45368;55.002;-1.592;2022-11-20T09:11:37;99629.57;;;4.56;74.29
59545;BME280;45368;55.002;-1.592;2022-11-20T09:14:05;99632.48;;;3.67;76.75
59545;BME280;45368;55.002;-1.592;2022-11-20T09:16:44;99636.06;;;4.18;75.71
59545;BME280;45368;55.002;-1.592;2022-11-20T09:19:17;99636.89;;;4.20;75.71
59545;BME280;45368;55.002;-1.592;2022-11-20T09:21:44;99628.56;;;5.06;72.77
59545;BME280;45368;55.002;-1.592;2022-11-20T09:24:12;99632.86;;;4.15;74.97
59545;BME280;45368;55.002;-1.592;2022-11-20T09:26:39;99628.43;;;4.54;75.15
59545;BME280;45368;55.002;-1.592;2022-11-20T09:29:06;99633.26;;;4.82;73.87
59545;BME280;45368;55.002;-1.592;2022-11-20T09:31:33;99633.71;;;4.10;75.94
59545;BME280;45368;55.002;-1.592;2022-11-20T09:34:01;99641.05;;;4.01;76.05
59545;BME280;45368;55.002;-1.592;2022-11-20T09:36:29;99642.44;;;3.85;75.83
59545;BME280;45368;55.002;-1.592;2022-11-20T09:38:56;99643.08;;;4.22;75.58
59545;BME280;45368;55.002;-1.592;2022-11-20T09:41:36;99649.99;;;3.60;77.73
59545;BME280;45368;55.002;-1.592;2022-11-20T09:44:16;99647.74;;;3.69;78.21
59545;BME280;45368;55.002;-1.592;2022-11-20T09:46:54;99640.11;;;4.27;75.62
59545;BME280;45368;55.002;-1.592;2022-11-20T09:49:34;99644.04;;;4.45;75.92
59545;BME280;45368;55.002;-1.592;2022-11-20T09:52:18;99638.88;;;5.07;73.91
59545;BME280;45368;55.002;-1.592;2022-11-20T09:54:48;99639.11;;;4.87;73.49
59545;BME280;45368;55.002;-1.592;2022-11-20T09:57:20;99635.41;;;4.38;74.44
59545;BME280;45368;55.002;-1.592;2022-11-20T09:59:51;99624.08;;;4.44;74.24
59545;BME280;45368;55.002;-1.592;2022-11-20T10:02:27;99626.39;;;4.31;75.18
59545;BME280;45368;55.002;-1.592;2022-11-20T10:05:01;99633.77;;;4.26;74.94
59545;BME280;45368;55.002;-1.592;2022-11-20T10:07:36;99634.55;;;4.79;74.16
59545;BME280;45368;55.002;-1.592;2022-11-20T10:10:15;99631.45;;;4.41;74.85
59545;BME280;45368;55.002;-1.592;2022-11-20T10:12:53;99629.07;;;4.64;74.07
59545;BME280;45368;55.002;-1.592;2022-11-20T10:15:33;99631.52;;;4.87;73.43
59545;BME280;45368;55.002;-1.592;2022-11-20T10:18:10;99627.87;;;4.96;72.81
59545;BME280;45368;55.002;-1.592;2022-11-20T10:20:48;99629.36;;;4.48;74.73
59545;BME280;45368;55.002;-1.592;2022-11-20T10:23:29;99627.57;;;4.65;74.57
59545;BME280;45368;55.002;-1.592;2022-11-20T10:26:02;99629.45;;;4.26;74.76
59545;BME280;45368;55.002;-1.592;2022-11-20T10:28:42;99620.16;;;4.92;73.30
59545;BME280;45368;55.002;-1.592;2022-11-20T10:31:22;99617.54;;;5.47;72.43
59545;BME280;45368;55.002;-1.592;2022-11-20T10:33:53;99612.73;;;5.44;72.96
59545;BME280;45368;55.002;-1.592;2022-11-20T10:36:27;99610.55;;;5.77;71.20
59545;BME280;45368;55.002;-1.592;2022-11-20T10:39:00;99604.87;;;6.63;68.69
59545;BME280;45368;55.002;-1.592;2022-11-20T10:41:30;99600.71;;;6.60;67.74
59545;BME280;45368;55.002;-1.592;2022-11-20T10:44:05;99597.71;;;6.32;68.19
59545;BME280;45368;55.002;-1.592;2022-11-20T10:46:38;99588.35;;;6.80;67.53
59545;BME280;45368;55.002;-1.592;2022-11-20T10:49:12;99587.96;;;7.56;65.92
59545;BME280;45368;55.002;-1.592;2022-11-20T10:51:52;99590.33;;;7.42;63.79
59545;BME280;45368;55.002;-1.592;2022-11-20T10:54:32;99584.85;;;8.26;61.70
59545;BME280;45368;55.002;-1.592;2022-11-20T10:57:10;99582.35;;;9.46;58.56
59545;BME280;45368;55.002;-1.592;2022-11-20T10:59:54;99581.79;;;10.61;56.23
59545;BME280;45368;55.002;-1.592;2022-11-20T11:02:34;99584.12;;;11.31;54.10
59545;BME280;45368;55.002;-1.592;2022-11-20T11:05:12;99570.08;;;12.71;50.82
59545;BME280;45368;55.002;-1.592;2022-11-20T11:07:41;99581.29;;;11.44;52.47
59545;BME280;45368;55.002;-1.592;2022-11-20T11:10:15;99578.37;;;10.39;53.63
59545;BME280;45368;55.002;-1.592;2022-11-20T11:12:45;99579.84;;;8.94;56.14
59545;BME280;45368;55.002;-1.592;2022-11-20T11:15:23;99578.19;;;9.89;56.44
59545;BME280;45368;55.002;-1.592;2022-11-20T11:17:51;99576.04;;;9.78;56.18
59545;BME280;45368;55.002;-1.592;2022-11-20T11:20:20;99575.60;;;10.55;54.73
59545;BME280;45368;55.002;-1.592;2022-11-20T11:22:50;99573.61;;;11.76;52.69
59545;BME280;45368;55.002;-1.592;2022-11-20T11:25:24;99565.10;;;13.65;48.70
59545;BME280;45368;55.002;-1.592;2022-11-20T11:27:53;99568.22;;;12.50;49.16
59545;BME280;45368;55.002;-1.592;2022-11-20T11:30:21;99571.20;;;12.59;49.68
59545;BME280;45368;55.002;-1.592;2022-11-20T11:32:48;99569.53;;;13.55;47.41
59545;BME280;45368;55.002;-1.592;2022-11-20T11:35:22;99576.27;;;12.73;48.38
59545;BME280;45368;55.002;-1.592;2022-11-20T11:37:50;99578.84;;;12.13;48.72
59545;BME280;45368;55.002;-1.592;2022-11-20T11:40:18;99577.11;;;11.77;50.24
59545;BME280;45368;55.002;-1.592;2022-11-20T11:42:52;99590.24;;;10.45;52.34
59545;BME280;45368;55.002;-1.592;2022-11-20T11:45:21;99592.96;;;10.69;53.33
59545;BME280;45368;55.002;-1.592;2022-11-20T11:47:50;99593.17;;;9.78;54.46
59545;BME280;45368;55.002;-1.592;2022-11-20T11:50:21;99598.36;;;9.25;55.13
59545;BME280;45368;55.002;-1.592;2022-11-20T11:52:54;99603.52;;;8.83;56.90
59545;BME280;45368;55.002;-1.592;2022-11-20T11:55:29;99600.83;;;8.09;59.89
59545;BME280;45368;55.002;-1.592;2022-11-20T11:58:09;99605.08;;;7.66;60.65
59545;BME280;45368;55.002;-1.592;2022-11-20T12:00:41;99601.44;;;7.08;61.38
59545;BME280;45368;55.002;-1.592;2022-11-20T12:03:17;99605.72;;;7.04;62.09
59545;BME280;45368;55.002;-1.592;2022-11-20T12:05:49;99602.89;;;7.20;61.59
59545;BME280;45368;55.002;-1.592;2022-11-20T12:08:23;99595.85;;;7.40;61.81
59545;BME280;45368;55.002;-1.592;2022-11-20T12:10:57;99590.97;;;7.14;63.14
59545;BME280;45368;55.002;-1.592;2022-11-20T12:13:36;99581.25;;;7.81;59.72
59545;BME280;45368;55.002;-1.592;2022-11-20T12:16:13;99575.78;;;7.63;59.32
59545;BME280;45368;55.002;-1.592;2022-11-20T12:18:40;99580.02;;;7.34;60.40
59545;BME280;45368;55.002;-1.592;2022-11-20T12:21:18;99572.46;;;7.38;60.45
59545;BME280;45368;55.002;-1.592;2022-11-20T12:24:01;99568.68;;;7.15;60.63
59545;BME280;45368;55.002;-1.592;2022-11-20T12:26:42;99572.47;;;7.24;59.99
59545;BME280;45368;55.002;-1.592;2022-11-20T12:29:20;99575.36;;;6.87;59.88
59545;BME280;45368;55.002;-1.592;2022-11-20T12:32:05;99576.90;;;6.97;61.44
59545;BME280;45368;55.002;-1.592;2022-11-20T12:34:56;99574.76;;;7.39;59.94
59545;BME280;45368;55.002;-1.592;2022-11-20T12:37:36;99585.68;;;6.80;62.10
59545;BME280;45368;55.002;-1.592;2022-11-20T12:40:19;99581.04;;;7.71;58.60
59545;BME280;45368;55.002;-1.592;2022-11-20T12:42:59;99579.61;;;8.08;58.48
59545;BME280;45368;55.002;-1.592;2022-11-20T12:45:44;99579.90;;;8.76;56.92
59545;BME280;45368;55.002;-1.592;2022-11-20T12:48:33;99582.36;;;8.60;57.13
59545;BME280;45368;55.002;-1.592;2022-11-20T12:51:17;99578.81;;;8.73;54.82
59545;BME280;45368;55.002;-1.592;2022-11-20T12:54:01;99581.08;;;8.58;54.78
59545;BME280;45368;55.002;-1.592;2022-11-20T12:56:40;99580.73;;;8.28;57.11
59545;BME280;45368;55.002;-1.592;2022-11-20T12:59:23;99577.43;;;8.33;56.55
59545;BME280;45368;55.002;-1.592;2022-11-20T13:01:57;99576.83;;;7.90;57.92
59545;BME280;45368;55.002;-1.592;2022-11-20T13:04:49;99578.35;;;8.07;56.99
59545;BME280;45368;55.002;-1.592;2022-11-20T13:07:21;99578.25;;;8.49;57.52
59545;BME280;45368;55.002;-1.592;2022-11-20T13:09:52;99582.44;;;8.03;56.51
59545;BME280;45368;55.002;-1.592;2022-11-20T13:12:28;99585.96;;;8.37;56.63
59545;BME280;45368;55.002;-1.592;2022-11-20T13:15:04;99581.97;;;8.65;55.94